Time;durP1;ratioP1;P1;durP2;ratioP2;P2;SDS_P1;SDS_P2;PMS_P1;PMS_P2;Temp;Humidity;BMP_temperature;BMP_pressure;BME280_temperature;BME280_humidity;BME280_pressure;Samples;Min_cycle;Max_cycle;Signal;HPM_P1;HPM_P2
2021/12/17 00:01:06;;;;;;;29.35;12.20;;;;;;;3.89;93.29;97511.81;5088341;28;20083;-68
2021/12/17 00:03:44;;;;;;;38.10;15.15;;;;;;;2.84;93.50;97353.16;5086656;28;20059;-69
2021/12/17 00:06:18;;;;;;;41.58;15.73;;;;;;;3.47;94.02;97449.44;5088074;28;20056;-68
2021/12/17 00:08:50;;;;;;;41.88;17.15;;;;;;;3.98;94.79;97525.59;5086440;28;20056;-70
2021/12/17 00:11:20;;;;;;;47.17;17.70;;;;;;;4.02;95.12;97527.38;5086351;28;20135;-68
2021/12/17 00:13:48;;;;;;;33.80;13.10;;;;;;;3.87;95.11;97508.59;5087668;28;20048;-68
2021/12/17 00:16:20;;;;;;;23.08;10.55;;;;;;;4.05;95.05;97537.69;5087804;28;20048;-70
2021/12/17 00:19:00;;;;;;;22.92;10.27;;;;;;;3.93;95.46;97540.22;5086453;28;20052;-69
2021/12/17 00:49:02;;;;;;;32.05;12.90;;;;;;;2.67;100.00;97473.38;5067029;28;20056;-69
2021/12/17 00:54:21;;;;;;;84.32;25.02;;;;;;;2.82;100.00;97503.09;5066712;28;20057;-69
2021/12/17 00:56:51;;;;;;;47.83;17.43;;;;;;;2.83;100.00;97504.69;5066989;28;20438;-69
2021/12/17 00:59:18;;;;;;;23.40;10.10;;;;;;;2.69;100.00;97512.97;5065332;28;20055;-68
2021/12/17 01:01:46;;;;;;;26.73;10.40;;;;;;;2.84;100.00;97530.97;5066973;28;20564;-69
2021/12/17 01:04:13;;;;;;;21.10;8.90;;;;;;;2.36;100.00;97445.09;5067193;28;20056;-68
2021/12/17 01:06:40;;;;;;;23.00;9.02;;;;;;;2.35;100.00;97444.31;5067129;28;20102;-69
2021/12/17 01:09:12;;;;;;;19.80;8.25;;;;;;;2.80;100.00;97517.09;5066714;28;20062;-69
2021/12/17 01:11:40;;;;;;;15.88;7.90;;;;;;;2.76;100.00;97515.28;5066797;28;20052;-68
2021/12/17 01:14:07;;;;;;;16.92;7.07;;;;;;;2.36;100.00;97458.78;5067255;28;20052;-68
2021/12/17 01:16:33;;;;;;;18.63;8.20;;;;;;;2.31;100.00;97453.44;5066628;28;20052;-68
2021/12/17 01:19:13;;;;;;;17.33;7.30;;;;;;;2.79;100.00;97520.13;5066128;28;20045;-68
2021/12/17 01:43:06;;;;;;;15.98;6.53;;;;;;;2.05;100.00;97474.22;5086242;28;20055;-68
2021/12/17 01:45:37;;;;;;;14.63;6.75;;;;;;;2.24;100.00;97508.50;5083945;28;20051;-67
2021/12/17 01:48:10;;;;;;;24.42;9.35;;;;;;;2.41;100.00;97505.13;5084802;28;20052;-69
2021/12/17 01:56:52;;;;;;;17.35;7.93;;;;;;;2.23;100.00;97495.16;5085903;28;20062;-65
2021/12/17 01:59:25;;;;;;;20.98;9.07;;;;;;;1.77;100.00;97432.44;5086069;28;20058;-67
2021/12/17 02:01:59;;;;;;;23.27;8.48;;;;;;;2.53;100.00;97508.16;5084015;28;20040;-68
2021/12/17 02:04:26;;;;;;;14.27;6.63;;;;;;;1.46;100.00;97391.34;5085429;28;20051;-68
2021/12/17 02:06:53;;;;;;;14.05;6.75;;;;;;;2.43;100.00;97502.91;5084031;28;20048;-66
2021/12/17 02:29:37;;;;;;;14.82;6.47;;;;;;;2.58;100.00;97488.88;5085936;28;20062;-65
2021/12/17 02:32:05;;;;;;;14.73;6.80;;;;;;;2.59;100.00;97498.72;5085708;28;20056;-69
2021/12/17 02:37:19;;;;;;;31.92;12.35;;;;;;;2.68;100.00;97485.94;5085717;28;20070;-68
2021/12/17 02:47:38;;;;;;;24.27;12.55;;;;;;;2.68;99.00;97485.94;5059303;28;20502;-67
2021/12/17 02:50:07;;;;;;;23.38;14.93;;;;;;;2.76;99.05;97486.00;5065015;28;20065;-68
2021/12/17 02:52:36;;;;;;;21.35;11.32;;;;;;;2.67;98.65;97484.31;5064472;28;20048;-66
2021/12/17 02:55:07;;;;;;;24.05;11.02;;;;;;;2.74;98.45;97487.41;5065212;28;20078;-65
2021/12/17 02:57:35;;;;;;;25.42;12.32;;;;;;;2.79;99.21;97470.91;5064694;28;20538;-69
2021/12/17 03:00:06;;;;;;;23.90;11.05;;;;;;;2.29;99.54;97379.16;5063399;28;20060;-66
2021/12/17 03:02:36;;;;;;;18.15;9.48;;;;;;;2.87;100.00;97451.00;5063477;28;20060;-65
2021/12/17 03:05:04;;;;;;;21.40;9.77;;;;;;;2.83;100.00;97458.19;5063373;28;20067;-69
2021/12/17 03:07:34;;;;;;;26.20;10.45;;;;;;;2.36;99.97;97352.19;5062888;28;20048;-68
2021/12/17 03:10:06;;;;;;;21.50;9.75;;;;;;;2.26;99.19;97357.91;5064745;28;20064;-66
2021/12/17 03:12:50;;;;;;;19.67;9.70;;;;;;;2.78;97.88;97414.59;5063093;28;20498;-68
2021/12/17 03:26:06;;;;;;;26.35;9.80;;;;;;;3.21;95.95;97440.28;5064281;28;20045;-67
2021/12/17 03:28:33;;;;;;;25.90;8.75;;;;;;;3.16;95.99;97443.16;5062881;28;20139;-66
2021/12/17 03:31:01;;;;;;;24.35;8.32;;;;;;;3.15;96.03;97447.00;5064116;28;20143;-66
2021/12/17 03:33:28;;;;;;;19.63;8.32;;;;;;;3.10;96.21;97449.88;5064626;28;20586;-65
2021/12/17 03:35:57;;;;;;;15.40;7.47;;;;;;;3.26;93.66;97459.31;5063039;28;20053;-66
2021/12/17 03:38:25;;;;;;;18.33;6.55;;;;;;;2.52;93.99;97361.63;5064407;28;20490;-68
2021/12/17 03:41:09;;;;;;;24.70;7.22;;;;;;;3.02;95.42;97442.41;5074680;28;20067;-67
2021/12/17 03:43:36;;;;;;;16.30;7.85;;;;;;;3.08;96.22;97452.13;5084613;28;20058;-64
2021/12/17 03:46:03;;;;;;;16.98;8.07;;;;;;;2.73;94.99;97396.38;5084302;28;20058;-67
2021/12/17 03:48:31;;;;;;;15.13;8.40;;;;;;;2.79;94.50;97394.31;5084458;28;20047;-65
2021/12/17 03:50:57;;;;;;;16.70;8.45;;;;;;;3.17;94.16;97450.25;5084657;28;20055;-68
2021/12/17 03:53:24;;;;;;;14.55;7.55;;;;;;;3.11;95.97;97446.03;5083807;28;20052;-67
2021/12/17 03:55:51;;;;;;;22.40;10.95;;;;;;;2.98;97.09;97431.31;5084201;28;20442;-67
2021/12/17 03:58:19;;;;;;;25.17;12.35;;;;;;;3.16;96.78;97461.50;5084290;28;20044;-67
2021/12/17 04:00:46;;;;;;;32.85;14.60;;;;;;;3.09;96.60;97418.16;5087138;28;20040;-67
2021/12/17 04:03:13;;;;;;;16.67;7.03;;;;;;;3.13;96.59;97441.03;5086646;28;20056;-65
2021/12/17 04:05:41;;;;;;;11.18;5.47;;;;;;;2.86;97.55;97450.19;5086852;28;20074;-67
2021/12/17 04:08:08;;;;;;;16.80;8.10;;;;;;;2.86;99.23;97427.53;5088037;28;20852;-65
2021/12/17 04:10:42;;;;;;;22.88;9.40;;;;;;;2.66;98.51;97378.78;5088037;28;20054;-65
2021/12/17 04:13:24;;;;;;;69.50;23.50;;;;;;;2.97;97.07;97440.63;5086292;28;20100;-64
2021/12/17 04:16:04;;;;;;;30.42;12.88;;;;;;;2.98;97.37;97419.53;5087867;28;20048;-65
2021/12/17 04:18:32;;;;;;;14.70;7.82;;;;;;;2.57;96.78;97348.66;5087622;28;20051;-66
2021/12/17 04:21:00;;;;;;;14.38;7.10;;;;;;;2.61;98.04;97385.19;5086581;28;20044;-65
2021/12/17 04:23:27;;;;;;;13.48;7.20;;;;;;;2.87;99.18;97418.19;5086031;28;20048;-66
2021/12/17 04:25:54;;;;;;;15.02;6.13;;;;;;;2.64;98.77;97370.88;5086173;28;20051;-64
2021/12/17 04:28:21;;;;;;;21.00;7.57;;;;;;;2.89;97.98;97394.06;5087646;28;20047;-63
2021/12/17 04:30:48;;;;;;;13.18;6.60;;;;;;;3.17;96.17;97422.06;5087509;28;20048;-64
2021/12/17 04:33:16;;;;;;;12.32;6.47;;;;;;;2.94;96.21;97402.16;5086300;28;20067;-68
2021/12/17 04:35:43;;;;;;;15.98;6.55;;;;;;;2.82;96.35;97382.75;5087107;28;20047;-66
2021/12/17 04:38:12;;;;;;;15.30;7.13;;;;;;;2.70;95.80;97355.16;5085816;28;20048;-68
2021/12/17 04:40:42;;;;;;;13.75;6.82;;;;;;;3.01;95.45;97424.38;5078370;28;20683;-69
2021/12/17 04:46:14;;;;;;;13.95;7.18;;;;;;;3.04;96.29;97431.97;5067209;28;20146;-65
2021/12/17 04:59:58;;;;;;;17.58;8.50;;;;;;;2.79;100.00;97427.13;5066546;28;20052;-65
2021/12/17 05:02:25;;;;;;;22.02;10.20;;;;;;;2.92;100.00;97432.53;5067055;28;20067;-69
2021/12/17 05:04:53;;;;;;;28.98;14.25;;;;;;;2.40;100.00;97336.78;5065236;28;20052;-67
2021/12/17 05:07:22;;;;;;;34.50;16.42;;;;;;;2.29;100.00;97336.22;5066717;28;20060;-69
2021/12/17 05:10:05;;;;;;;42.30;22.27;;;;;;;1.65;99.50;97188.38;5065131;28;20781;-68
2021/12/17 05:20:49;;;;;;;67.95;29.08;;;;;;;2.56;97.92;97324.34;5066364;28;20056;-69
2021/12/17 05:23:22;;;;;;;39.65;20.00;;;;;;;3.00;99.14;97374.31;5066534;28;20051;-69
2021/12/17 05:25:50;;;;;;;24.33;11.60;;;;;;;2.62;98.74;97331.31;5066155;28;20053;-68
2021/12/17 05:28:17;;;;;;;18.77;9.45;;;;;;;3.18;97.44;97401.81;5064788;28;20053;-68
2021/12/17 05:30:46;;;;;;;15.75;7.22;;;;;;;3.21;95.88;97401.94;5065754;28;20676;-66
2021/12/17 05:33:14;;;;;;;14.90;7.85;;;;;;;2.90;96.33;97358.19;5064665;28;20053;-68
2021/12/17 05:35:42;;;;;;;15.60;8.45;;;;;;;2.92;96.33;97355.13;5066062;28;20052;-67
2021/12/17 05:38:09;;;;;;;21.52;9.85;;;;;;;3.06;97.64;97364.06;5066130;28;20055;-68
2021/12/17 05:40:37;;;;;;;30.90;13.77;;;;;;;3.11;97.32;97358.47;5073458;28;20058;-70
2021/12/17 05:43:05;;;;;;;47.45;22.08;;;;;;;3.23;97.80;97383.28;5086467;28;20044;-69
2021/12/17 05:48:04;;;;;;;25.45;11.35;;;;;;;3.21;97.68;97391.00;5084867;28;20071;-67
2021/12/17 05:50:34;;;;;;;30.40;13.07;;;;;;;3.03;95.26;97345.53;5064294;28;20076;-66
2021/12/17 05:53:03;;;;;;;33.08;17.38;;;;;;;3.41;94.61;97390.47;5065359;28;20060;-69
2021/12/17 05:55:30;;;;;;;44.33;18.60;;;;;;;2.87;95.37;97314.22;5064083;28;20056;-66
2021/12/17 05:57:57;;;;;;;35.05;17.55;;;;;;;3.35;96.03;97394.44;5065430;28;20060;-65
2021/12/17 06:00:25;;;;;;;40.85;19.50;;;;;;;3.02;95.91;97361.13;5065175;28;20044;-66
2021/12/17 06:02:52;;;;;;;28.50;11.20;;;;;;;2.67;100.00;97435.09;5065159;28;20048;-69
2021/12/17 06:05:19;;;;;;;49.90;18.98;;;;;;;2.86;100.00;97413.84;5065258;28;20052;-65
2021/12/17 06:07:45;;;;;;;49.95;21.13;;;;;;;2.90;100.00;97412.09;5063547;28;20523;-66
2021/12/17 06:10:13;;;;;;;45.13;18.27;;;;;;;3.04;100.00;97413.63;5065264;28;20049;-67
2021/12/17 06:12:40;;;;;;;37.90;17.27;;;;;;;3.21;99.50;97417.59;5063962;28;20438;-66
2021/12/17 06:15:09;;;;;;;43.03;18.58;;;;;;;3.07;99.19;97384.81;5065657;28;20412;-68
2021/12/17 06:17:36;;;;;;;66.93;28.90;;;;;;;2.13;98.29;97197.56;5065522;28;20589;-65
2021/12/17 06:20:05;;;;;;;66.53;29.75;;;;;;;3.38;96.85;97404.81;5065309;28;20060;-69
2021/12/17 06:22:32;;;;;;;37.05;16.58;;;;;;;3.37;97.02;97416.06;5064500;28;20507;-65
2021/12/17 06:24:59;;;;;;;38.92;16.63;;;;;;;3.42;96.36;97427.69;5065043;28;20455;-65
2021/12/17 06:27:26;;;;;;;45.75;19.02;;;;;;;3.42;96.82;97424.94;5064598;28;20052;-66
2021/12/17 06:29:53;;;;;;;45.50;21.55;;;;;;;3.44;96.56;97433.66;5064937;28;20048;-68
2021/12/17 06:32:21;;;;;;;47.20;22.98;;;;;;;3.49;96.65;97424.47;5064975;28;20057;-69
2021/12/17 06:34:48;;;;;;;34.45;16.02;;;;;;;3.52;96.24;97430.16;5064621;28;20631;-67
2021/12/17 06:37:16;;;;;;;32.75;13.77;;;;;;;2.98;95.89;97342.94;5064716;28;20051;-66
2021/12/17 06:39:43;;;;;;;20.85;10.73;;;;;;;3.38;95.69;97418.50;5063234;28;20064;-65
2021/12/17 06:42:10;;;;;;;26.92;10.82;;;;;;;3.39;96.12;97414.63;5082241;28;20051;-68
2021/12/17 06:44:41;;;;;;;40.35;16.90;;;;;;;3.13;95.20;97361.66;5085031;28;20139;-68
2021/12/17 06:55:10;;;;;;;26.73;12.63;;;;;;;3.77;93.61;97421.22;5084490;28;20822;-66
2021/12/17 07:06:03;;;;;;;28.90;13.80;;;;;;;4.05;91.56;97417.09;5084836;28;20122;-68
2021/12/17 07:28:06;;;;;;;44.88;17.92;;;;;;;4.65;86.76;97382.31;5063091;28;20044;-64
2021/12/17 07:40:49;;;;;;;61.90;30.17;;;;;;;5.21;86.27;97397.72;5073570;28;20051;-64
2021/12/17 07:43:25;;;;;;;74.88;30.63;;;;;;;5.39;86.84;97387.50;5087827;28;20499;-65
2021/12/17 07:45:53;;;;;;;69.68;36.58;;;;;;;5.45;86.34;97388.91;5088784;28;20062;-61
2021/12/17 07:48:21;;;;;;;75.43;36.70;;;;;;;5.53;85.91;97385.34;5085812;28;20079;-63
2021/12/17 07:50:47;;;;;;;62.08;28.80;;;;;;;4.57;83.14;97199.31;5087560;28;20079;-65
2021/12/17 07:53:15;;;;;;;44.13;20.42;;;;;;;4.71;83.28;97209.28;5075901;28;20050;-67
2021/12/17 07:55:42;;;;;;;35.47;17.85;;;;;;;3.09;81.75;97103.47;5078489;28;20058;-67
2021/12/17 07:58:09;;;;;;;26.52;12.18;;;;;;;5.67;80.84;97389.47;5065922;28;20049;-62
2021/12/17 08:00:36;;;;;;;31.20;14.93;;;;;;;5.31;80.68;97328.69;5065706;28;20381;-67
2021/12/17 08:03:03;;;;;;;37.92;15.63;;;;;;;4.72;82.07;97243.81;5065647;28;20143;-66
2021/12/17 08:05:30;;;;;;;26.33;12.52;;;;;;;5.43;81.55;97326.06;5066079;28;20048;-65
2021/12/17 08:07:56;;;;;;;21.65;11.05;;;;;;;4.53;81.22;97192.09;5064185;28;20052;-66
2021/12/17 08:10:23;;;;;;;25.73;11.27;;;;;;;5.51;80.57;97272.22;5065394;28;20061;-69
2021/12/17 08:12:54;;;;;;;31.40;15.98;;;;;;;6.48;79.61;97378.94;5065440;28;20052;-67
2021/12/17 08:15:29;;;;;;;36.65;17.40;;;;;;;6.37;77.62;97339.22;5067886;28;20155;-65
2021/12/17 08:18:25;;;;;;;43.42;19.25;;;;;;;6.98;74.32;97381.59;5066973;28;20044;-60
2021/12/17 08:31:34;;;;;;;53.35;25.85;;;;;;;7.22;70.47;97294.31;5082926;28;20063;-66
2021/12/17 08:34:02;;;;;;;47.92;22.90;;;;;;;8.00;69.60;97377.63;5078350;28;20067;-66
2021/12/17 08:36:30;;;;;;;39.08;17.88;;;;;;;7.49;68.13;97304.66;5080713;28;20066;-66
2021/12/17 08:38:57;;;;;;;33.90;17.05;;;;;;;8.06;68.77;97289.94;5075398;28;20059;-61
2021/12/17 08:41:26;;;;;;;27.25;12.85;;;;;;;8.39;68.24;97326.44;5067014;28;20458;-69
2021/12/17 08:43:53;;;;;;;20.23;10.48;;;;;;;8.27;68.82;97285.06;5067483;28;20431;-69
2021/12/17 08:46:20;;;;;;;19.05;9.30;;;;;;;8.24;68.38;97238.84;5065989;28;20056;-64
2021/12/17 08:48:47;;;;;;;32.53;17.10;;;;;;;7.45;69.48;97287.22;5065011;28;20135;-70
2021/12/17 08:51:14;;;;;;;15.82;8.55;;;;;;;7.13;68.80;97180.69;5080628;28;20055;-66
2021/12/17 08:53:41;;;;;;;15.15;7.40;;;;;;;6.89;68.49;97070.53;5085983;28;20603;-66
2021/12/17 08:56:07;;;;;;;17.85;7.90;;;;;;;8.37;67.42;97339.78;5085890;28;20052;-66
2021/12/17 08:58:35;;;;;;;13.32;6.78;;;;;;;8.43;66.27;97321.81;5086314;28;20056;-68
2021/12/17 09:01:04;;;;;;;14.82;6.70;;;;;;;8.72;65.39;97327.03;5069795;28;20438;-67
2021/12/17 09:03:32;;;;;;;12.13;6.20;;;;;;;8.72;64.31;97324.25;5064892;28;20087;-69
2021/12/17 09:06:00;;;;;;;12.85;6.45;;;;;;;8.72;64.63;97308.50;5066216;28;20125;-67
2021/12/17 09:08:27;;;;;;;14.40;6.45;;;;;;;8.32;64.51;97243.44;5064869;28;20059;-67
2021/12/17 09:10:57;;;;;;;11.65;5.93;;;;;;;8.29;65.01;97211.81;5066199;28;20056;-69
2021/12/17 09:13:26;;;;;;;16.40;6.38;;;;;;;8.78;65.55;97301.56;5064643;28;20053;-66
2021/12/17 09:15:58;;;;;;;11.32;5.80;;;;;;;8.72;64.48;97280.06;5074803;28;20053;-67
2021/12/17 09:18:25;;;;;;;14.20;6.13;;;;;;;8.08;66.13;97238.78;5066230;28;20060;-68
2021/12/17 09:20:52;;;;;;;9.02;5.50;;;;;;;8.56;64.67;97282.00;5066325;28;20071;-70
2021/12/17 09:23:19;;;;;;;15.18;5.03;;;;;;;8.55;63.38;97308.78;5066057;28;20052;-68
2021/12/17 09:25:52;;;;;;;24.40;11.85;;;;;;;8.38;68.03;97291.69;5065385;28;20537;-68
2021/12/17 09:28:18;;;;;;;29.80;14.60;;;;;;;7.41;68.75;97176.06;5065495;28;20060;-68
2021/12/17 09:30:45;;;;;;;26.52;13.93;;;;;;;8.03;69.07;97263.06;5064843;28;20044;-67
2021/12/17 09:33:12;;;;;;;22.50;11.07;;;;;;;7.29;67.43;97167.81;5064276;28;20048;-65
2021/12/17 09:35:39;;;;;;;21.85;9.85;;;;;;;7.07;68.48;97151.78;5065479;28;20143;-68
2021/12/17 09:38:06;;;;;;;21.95;11.00;;;;;;;7.89;67.37;97216.53;5063831;28;20586;-67
2021/12/17 09:40:33;;;;;;;25.95;11.07;;;;;;;7.85;68.72;97267.22;5065643;28;20052;-68
2021/12/17 09:42:59;;;;;;;15.35;7.55;;;;;;;7.29;71.03;97261.50;5084740;28;20070;-67
2021/12/17 09:45:26;;;;;;;20.30;6.63;;;;;;;6.70;72.68;97221.72;5074181;28;20542;-67
2021/12/17 09:47:54;;;;;;;10.18;5.50;;;;;;;7.04;68.80;97196.53;5065554;28;20045;-67
2021/12/17 09:50:22;;;;;;;10.70;5.47;;;;;;;7.26;67.80;97212.59;5065259;28;20135;-67
2021/12/17 09:52:49;;;;;;;13.15;5.55;;;;;;;7.75;66.36;97257.44;5063635;28;20052;-67
2021/12/17 09:55:15;;;;;;;11.73;6.40;;;;;;;7.27;66.58;97174.84;5063597;28;20061;-68
2021/12/17 09:57:42;;;;;;;13.80;6.88;;;;;;;7.38;67.09;97170.47;5064249;28;20432;-67
2021/12/17 10:00:19;;;;;;;11.85;5.70;;;;;;;7.19;65.68;97115.16;5065289;28;20044;-67
2021/12/17 10:02:48;;;;;;;17.25;5.10;;;;;;;7.08;65.34;97084.50;5063648;28;20270;-67
2021/12/17 10:05:19;;;;;;;10.00;4.80;;;;;;;7.92;65.84;97226.06;5063405;28;20071;-68
2021/12/17 10:07:53;;;;;;;7.45;3.80;;;;;;;6.95;67.81;97140.78;5063256;28;20062;-64
2021/12/17 10:10:19;;;;;;;;;;;;;;;8.24;67.12;97216.78;5064710;28;20443;-66
2021/12/17 10:12:47;;;;;;;13.05;4.18;;;;;;;8.71;66.10;97206.69;5064595;28;19931;-67
2021/12/17 10:15:19;;;;;;;12.30;5.10;;;;;;;9.22;64.01;97205.63;5073317;28;20135;-66
2021/12/17 10:17:53;;;;;;;16.17;8.35;;;;;;;9.43;61.74;97189.56;5083218;28;20581;-67
2021/12/17 10:20:23;;;;;;;16.25;8.35;;;;;;;9.48;59.63;97111.88;5074034;28;20056;-67
2021/12/17 10:23:08;;;;;;;9.73;4.63;;;;;;;10.18;57.59;97146.56;5064177;28;20056;-66
2021/12/17 10:25:46;;;;;;;13.35;5.70;;;;;;;10.47;57.62;97085.03;5076232;28;20426;-67
2021/12/17 10:28:14;;;;;;;13.23;5.35;;;;;;;10.98;54.65;97154.81;5083762;28;20059;-68
2021/12/17 10:30:43;;;;;;;9.18;5.13;;;;;;;11.09;54.58;97105.06;5085118;28;20091;-68
2021/12/17 10:33:14;;;;;;;9.00;3.80;;;;;;;11.33;54.09;97158.16;5084777;28;20060;-68
2021/12/17 10:35:45;;;;;;;8.95;3.97;;;;;;;11.11;54.15;97136.00;5084821;28;20060;-67
2021/12/17 10:38:16;;;;;;;10.70;3.83;;;;;;;10.91;51.73;97037.50;5084660;28;20067;-65
2021/12/17 10:40:48;;;;;;;8.82;3.30;;;;;;;11.85;49.85;97162.91;5084385;28;20051;-67
2021/12/17 10:43:36;;;;;;;11.07;2.60;;;;;;;12.16;48.09;97151.44;5084678;28;20421;-69
2021/12/17 10:46:22;;;;;;;3.65;1.70;;;;;;;10.19;47.92;97065.16;5068792;28;20139;-67
2021/12/17 10:48:55;;;;;;;4.13;2.15;;;;;;;10.96;49.39;97145.25;5062954;28;20049;-67
2021/12/17 10:54:11;;;;;;;7.72;2.85;;;;;;;10.53;50.85;97086.34;5063581;28;20068;-68
2021/12/17 10:56:41;;;;;;;3.70;1.80;;;;;;;10.52;48.79;97081.97;5063228;28;20066;-66
2021/12/17 10:59:11;;;;;;;4.15;2.05;;;;;;;10.58;49.44;97090.75;5062927;28;20048;-69
2021/12/17 11:01:44;;;;;;;4.70;1.55;;;;;;;10.89;49.50;97145.13;5062939;28;20059;-69
2021/12/17 11:04:14;;;;;;;4.53;2.15;;;;;;;11.05;49.82;97129.19;5062591;28;20056;-65
2021/12/17 11:06:42;;;;;;;3.75;1.80;;;;;;;10.83;49.47;97127.22;5064266;28;20084;-67
2021/12/17 11:09:09;;;;;;;5.63;2.88;;;;;;;10.58;49.95;97110.97;5063760;28;20084;-65
2021/12/17 11:11:41;;;;;;;5.90;2.53;;;;;;;10.06;51.43;97112.69;5082033;28;20109;-69
2021/12/17 11:14:09;;;;;;;6.95;2.53;;;;;;;10.45;52.13;97109.53;5071746;28;20506;-63
2021/12/17 11:16:37;;;;;;;4.88;1.75;;;;;;;10.29;50.35;97077.59;5079173;28;20059;-63
2021/12/17 11:19:04;;;;;;;5.18;2.30;;;;;;;10.47;50.62;97106.38;5068831;28;20439;-66
2021/12/17 11:21:32;;;;;;;5.35;2.08;;;;;;;10.25;50.41;97099.66;5081583;28;20055;-68
2021/12/17 11:24:00;;;;;;;4.63;1.90;;;;;;;10.37;50.76;97093.13;5069984;28;20415;-63
2021/12/17 11:26:28;;;;;;;4.85;2.22;;;;;;;10.34;50.91;97096.66;5074131;28;20529;-66
2021/12/17 11:29:00;;;;;;;3.42;1.70;;;;;;;10.29;50.82;97100.53;5090876;28;20404;-64
2021/12/17 11:31:27;;;;;;;4.47;2.20;;;;;;;10.15;51.75;97099.44;5064849;28;20056;-63
2021/12/17 11:33:55;;;;;;;5.00;2.10;;;;;;;8.61;55.61;97036.00;5079124;28;20040;-65
2021/12/17 11:36:23;;;;;;;5.13;2.45;;;;;;;7.77;57.35;96934.53;5072498;28;20056;-62
2021/12/17 11:39:05;;;;;;;6.57;2.30;;;;;;;8.83;57.95;97110.75;5070481;28;20055;-62
2021/12/17 11:41:55;;;;;;;7.05;2.90;;;;;;;8.61;57.44;97031.31;5067658;28;20059;-64
2021/12/17 11:44:28;;;;;;;6.68;2.80;;;;;;;8.92;57.85;97091.19;5067240;28;20052;-63
2021/12/17 11:47:04;;;;;;;4.87;2.17;;;;;;;8.29;58.26;97062.00;5061981;28;20052;-65
2021/12/17 11:49:44;;;;;;;4.25;2.33;;;;;;;7.88;57.78;97034.88;5063083;28;20691;-62
2021/12/17 11:52:11;;;;;;;4.93;2.60;;;;;;;8.09;58.80;97107.97;5074933;28;20697;-64
2021/12/17 11:54:38;;;;;;;5.18;2.42;;;;;;;8.22;59.53;97094.91;5065902;28;20086;-61
2021/12/17 11:57:07;;;;;;;5.43;2.75;;;;;;;8.16;60.46;97107.34;5071354;28;20590;-61
2021/12/17 11:59:37;;;;;;;4.95;2.10;;;;;;;7.54;60.50;97031.56;5068813;28;20052;-61
2021/12/17 12:02:22;;;;;;;6.70;3.30;;;;;;;7.66;61.63;97045.34;5076675;28;20056;-61
2021/12/17 12:04:54;;;;;;;7.53;3.47;;;;;;;7.82;61.92;97105.22;5079457;28;20070;-60
2021/12/17 12:07:23;;;;;;;7.47;3.88;;;;;;;7.69;63.21;97104.47;5074878;28;20052;-62
2021/12/17 12:09:58;;;;;;;11.77;5.13;;;;;;;7.77;63.46;97110.97;5062861;28;20519;-66
2021/12/17 12:12:30;;;;;;;10.23;4.15;;;;;;;7.83;62.61;97098.53;5079237;28;20147;-62
2021/12/17 12:15:24;;;;;;;13.35;4.85;;;;;;;7.93;63.55;97092.53;5068393;28;20055;-63
2021/12/17 12:17:56;;;;;;;7.47;3.70;;;;;;;8.07;63.53;97087.41;5069074;28;20143;-67
2021/12/17 12:20:47;;;;;;;8.45;4.13;;;;;;;8.01;63.99;97072.25;5067002;28;20410;-66
2021/12/17 12:23:21;;;;;;;9.55;5.07;;;;;;;7.84;65.12;97037.50;5077915;28;20053;-63
2021/12/17 12:26:03;;;;;;;9.48;4.32;;;;;;;8.09;63.61;97071.31;5073542;28;20078;-64
2021/12/17 12:28:45;;;;;;;8.30;4.32;;;;;;;8.18;62.31;97069.97;5073233;28;20054;-67
2021/12/17 12:31:30;;;;;;;14.90;6.60;;;;;;;8.34;64.07;97059.78;5074130;28;20920;-66
2021/12/17 12:34:00;;;;;;;12.68;5.35;;;;;;;8.54;61.85;97049.63;5085053;28;20430;-61
2021/12/17 12:36:52;;;;;;;15.32;6.65;;;;;;;8.81;61.56;97052.28;5069458;28;20040;-62
2021/12/17 12:40:03;;;;;;;11.57;5.30;;;;;;;8.90;61.88;97058.41;5066387;28;20178;-66
2021/12/17 12:42:35;;;;;;;8.23;4.57;;;;;;;8.68;61.67;97083.09;5073936;28;20131;-63
2021/12/17 12:45:07;;;;;;;10.07;4.47;;;;;;;8.88;61.18;97046.13;5068061;28;20049;-60
2021/12/17 12:47:41;;;;;;;7.82;3.38;;;;;;;8.77;61.77;97056.91;5080776;28;20314;-64
2021/12/17 12:50:11;;;;;;;;;;;;;;;8.56;63.11;97061.13;5066849;28;20143;-65
2021/12/17 12:52:57;;;;;;;17.35;7.13;;;;;;;7.21;65.44;96896.03;5083053;28;19931;-60
2021/12/17 12:55:33;;;;;;;12.07;4.80;;;;;;;8.25;67.14;97045.34;5071668;28;20053;-61
2021/12/17 12:58:01;;;;;;;11.75;4.47;;;;;;;8.14;68.12;97054.50;5076790;28;20044;-61
2021/12/17 13:00:38;;;;;;;16.85;5.93;;;;;;;8.26;68.57;97062.72;5080330;28;20126;-66
2021/12/17 13:03:10;;;;;;;15.00;5.75;;;;;;;8.16;66.71;97052.16;5066146;28;20936;-61
2021/12/17 13:05:38;;;;;;;10.13;4.18;;;;;;;7.71;67.13;97003.69;5081484;28;20075;-65
2021/12/17 13:08:07;;;;;;;7.97;4.22;;;;;;;7.72;67.55;96982.44;5081581;28;20062;-62
2021/12/17 13:10:37;;;;;;;14.90;5.45;;;;;;;8.00;68.16;97059.63;5074437;28;20510;-63
2021/12/17 13:13:17;;;;;;;14.32;7.93;;;;;;;5.39;68.31;96648.69;5067540;28;20083;-63
2021/12/17 13:15:51;;;;;;;15.50;7.65;;;;;;;7.90;69.03;97057.38;5078861;28;20040;-60
2021/12/17 13:24:07;;;;;;;22.52;10.20;;;;;;;7.62;70.29;97030.63;5084614;28;20106;-63
2021/12/17 13:26:34;;;;;;;14.80;7.00;;;;;;;7.41;70.82;96994.19;5072226;28;20258;-64
2021/12/17 13:29:06;;;;;;;14.25;7.28;;;;;;;6.68;71.09;96884.69;5066894;28;20078;-62
2021/12/17 13:31:45;;;;;;;10.93;5.32;;;;;;;7.46;70.35;96993.94;5065320;28;20055;-64
2021/12/17 13:34:22;;;;;;;17.77;7.65;;;;;;;7.69;70.15;97038.31;5064078;28;20056;-64
2021/12/17 13:36:53;;;;;;;29.95;12.50;;;;;;;7.36;71.13;97013.75;5064414;28;20062;-61
2021/12/17 13:39:23;;;;;;;15.35;6.57;;;;;;;7.61;71.47;97069.56;5071618;28;20056;-64
2021/12/17 13:41:50;;;;;;;14.93;5.20;;;;;;;7.30;70.81;97001.34;5070893;28;20052;-62
2021/12/17 13:44:36;;;;;;;15.52;5.50;;;;;;;6.86;72.26;96917.06;5070055;28;20048;-62
2021/12/17 13:47:07;;;;;;;23.23;8.85;;;;;;;6.92;73.14;96937.72;5075311;28;20055;-63
2021/12/17 13:49:34;;;;;;;17.67;6.40;;;;;;;6.84;72.68;96924.09;5080639;28;20059;-66
2021/12/17 13:52:02;;;;;;;85.25;23.15;;;;;;;7.52;72.86;97055.94;5065454;28;20056;-62
2021/12/17 13:54:29;;;;;;;30.00;11.45;;;;;;;7.51;73.55;97054.34;5065926;28;20141;-64
2021/12/17 13:56:57;;;;;;;28.58;9.93;;;;;;;7.55;73.00;97055.25;5078416;28;20048;-63
2021/12/17 13:59:33;;;;;;;12.98;6.32;;;;;;;7.54;73.32;97059.13;5083170;28;20055;-60
2021/12/17 14:02:14;;;;;;;20.75;9.55;;;;;;;7.54;71.96;97061.91;5079991;28;20071;-66
2021/12/17 14:04:43;;;;;;;13.85;6.53;;;;;;;6.92;72.49;96954.25;5079098;28;20067;-64
2021/12/17 14:07:11;;;;;;;19.70;7.43;;;;;;;6.80;71.62;96939.69;5065138;28;20517;-62
2021/12/17 14:09:38;;;;;;;22.45;9.90;;;;;;;7.04;71.58;96973.47;5078106;28;20126;-64
2021/12/17 14:12:09;;;;;;;30.80;9.85;;;;;;;7.62;71.80;97041.66;5064283;28;20136;-61
2021/12/17 14:15:01;;;;;;;71.82;23.00;;;;;;;7.40;71.01;97013.84;5063696;28;20108;-66
2021/12/17 14:17:38;;;;;;;37.92;14.80;;;;;;;7.39;71.09;97056.31;5078824;28;20078;-59
2021/12/17 14:20:09;;;;;;;20.02;8.40;;;;;;;7.45;72.04;97061.25;5077771;28;20052;-59
2021/12/17 14:22:40;;;;;;;14.05;5.97;;;;;;;7.51;71.27;97064.53;5085234;28;20054;-61
2021/12/17 14:25:24;;;;;;;7.57;3.45;;;;;;;7.48;70.85;97060.53;5075301;28;20082;-62
2021/12/17 14:27:51;;;;;;;16.80;6.03;;;;;;;7.12;71.33;96991.81;5017427;28;20048;-62
2021/12/17 14:30:33;;;;;;;31.58;14.65;;;;;;;5.77;71.90;96770.72;5082843;28;20415;-64
2021/12/17 14:33:19;;;;;;;19.35;7.95;;;;;;;7.64;72.00;97068.88;5084322;28;20718;-63
2021/12/17 14:35:56;;;;;;;13.30;7.00;;;;;;;7.65;72.01;97065.75;5083727;28;20051;-62
2021/12/17 14:38:33;;;;;;;4.72;2.03;;;;;;;6.84;74.80;97056.22;5082505;28;20055;-63
2021/12/17 14:41:02;;;;;;;3.85;1.63;;;;;;;6.44;77.21;97069.88;5083974;28;20048;-63
2021/12/17 14:43:40;;;;;;;4.35;1.50;;;;;;;6.40;78.58;97071.72;5083861;28;20147;-63
2021/12/17 14:49:04;;;;;;;4.50;1.23;;;;;;;6.43;78.94;97073.78;5083916;28;20052;-63
2021/12/17 15:05:07;;;;;;;2.23;1.07;;;;;;;4.40;89.90;96990.97;5083875;28;20047;-68
2021/12/17 15:07:34;;;;;;;1.98;0.70;;;;;;;4.90;89.37;97163.03;5083701;28;20720;-66
2021/12/17 15:10:03;;;;;;;2.00;0.85;;;;;;;4.36;89.71;97011.97;5083664;28;20048;-65
2021/12/17 15:15:05;;;;;;;21.63;7.32;;;;;;;5.07;89.36;97083.34;5083833;28;20047;-63
2021/12/17 15:17:32;;;;;;;6.55;3.33;;;;;;;5.13;85.13;97073.75;5084092;28;20066;-66